createdAt,value
2023-04-26T00:01:05.757Z,6.89
2023-04-26T00:05:57.770Z,6.88
2023-04-26T00:10:49.446Z,6.79
2023-04-26T00:15:41.014Z,6.72
2023-04-26T00:20:32.718Z,6.63
2023-04-26T00:25:24.385Z,6.63
2023-04-26T00:30:16.243Z,6.60
2023-04-26T00:35:08.518Z,6.59
2023-04-26T00:40:00.144Z,6.56
2023-04-26T00:44:55.353Z,6.50
2023-04-26T00:49:46.986Z,6.49
2023-04-26T00:54:38.931Z,6.45
2023-04-26T00:59:30.590Z,6.40
2023-04-26T01:04:26.431Z,6.36
2023-04-26T01:09:18.867Z,6.33
2023-04-26T01:14:11.045Z,6.28
2023-04-26T01:19:12.402Z,6.22
2023-04-26T01:24:05.467Z,6.19
2023-04-26T01:28:57.228Z,6.12
2023-04-26T01:33:48.773Z,6.04
2023-04-26T01:38:40.486Z,5.99
2023-04-26T01:43:32.352Z,5.98
2023-04-26T01:48:23.945Z,5.92
2023-04-26T01:53:15.501Z,5.88
2023-04-26T01:58:07.193Z,5.84
2023-04-26T02:02:58.993Z,5.80
2023-04-26T02:07:51.682Z,5.77
2023-04-26T02:12:44.688Z,5.72
2023-04-26T02:17:37.887Z,5.69
2023-04-26T02:22:29.893Z,5.65
2023-04-26T02:27:21.498Z,5.64
2023-04-26T02:32:16.416Z,5.61
2023-04-26T02:37:08.966Z,5.60
2023-04-26T02:42:00.728Z,5.60
2023-04-26T02:46:52.370Z,5.57
2023-04-26T02:51:44.015Z,5.54
2023-04-26T02:56:35.683Z,5.53
2023-04-26T03:01:27.513Z,5.52
2023-04-26T03:06:19.162Z,5.51
2023-04-26T03:11:11.610Z,5.49
2023-04-26T03:16:03.219Z,5.45
2023-04-26T03:20:54.813Z,5.41
2023-04-26T03:25:46.822Z,5.36
2023-04-26T03:30:38.586Z,5.31
2023-04-26T03:35:30.376Z,5.29
2023-04-26T03:40:21.956Z,5.27
2023-04-26T03:45:13.551Z,5.23
2023-04-26T03:50:06.392Z,5.20
2023-04-26T03:54:58.011Z,5.19
2023-04-26T03:59:49.548Z,5.17
2023-04-26T04:04:41.266Z,5.12
2023-04-26T04:09:33.112Z,5.11
2023-04-26T04:14:24.752Z,5.08
2023-04-26T04:19:16.858Z,5.10
2023-04-26T04:24:08.544Z,5.09
2023-04-26T04:29:08.667Z,5.15
2023-04-26T04:34:00.862Z,5.16
2023-04-26T04:38:53.799Z,5.14
2023-04-26T04:43:45.706Z,5.15
2023-04-26T04:48:38.733Z,5.16
2023-04-26T04:53:30.695Z,5.18
2023-04-26T04:58:22.583Z,5.18
2023-04-26T05:03:15.155Z,5.15
2023-04-26T05:08:07.959Z,5.15
2023-04-26T05:12:59.548Z,5.13
2023-04-26T05:17:51.440Z,5.15
2023-04-26T05:22:43.433Z,5.17
2023-04-26T05:27:35.062Z,5.17
2023-04-26T05:32:26.892Z,5.21
2023-04-26T05:37:18.534Z,5.23
2023-04-26T05:42:10.078Z,5.18
2023-04-26T05:47:01.839Z,5.20
2023-04-26T05:51:53.547Z,5.21
2023-04-26T05:56:45.135Z,5.16
2023-04-26T06:01:36.738Z,5.15
2023-04-26T06:06:28.737Z,5.19
2023-04-26T06:11:21.361Z,5.23
2023-04-26T06:16:13.078Z,5.31
2023-04-26T06:21:05.297Z,5.44
2023-04-26T06:25:56.880Z,5.59
2023-04-26T06:30:48.651Z,5.82
2023-04-26T06:35:43.337Z,6.12
2023-04-26T06:40:37.122Z,6.31
2023-04-26T06:45:28.857Z,6.46
2023-04-26T06:50:20.716Z,6.65
2023-04-26T06:55:12.413Z,6.79
2023-04-26T07:00:04.655Z,6.90
2023-04-26T07:04:56.532Z,6.97
2023-04-26T07:09:48.298Z,7.00
2023-04-26T07:14:41.394Z,7.15
2023-04-26T07:19:33.164Z,7.32
2023-04-26T07:24:24.825Z,7.46
2023-04-26T07:29:16.523Z,7.61
2023-04-26T07:34:08.087Z,7.89
2023-04-26T07:38:59.681Z,8.14
2023-04-26T07:43:51.441Z,8.38
2023-04-26T07:48:43.228Z,8.53
2023-04-26T07:53:35.197Z,8.73
2023-04-26T07:58:26.851Z,8.92
2023-04-26T08:03:18.792Z,9.12
2023-04-26T08:08:11.104Z,9.24
2023-04-26T08:13:03.545Z,9.53
2023-04-26T08:17:55.310Z,9.77
2023-04-26T08:22:46.983Z,9.97
2023-04-26T08:27:39.849Z,10.09
2023-04-26T08:32:31.465Z,10.40
2023-04-26T08:37:23.076Z,10.66
2023-04-26T08:42:16.254Z,11.02
2023-04-26T08:47:15.904Z,11.38
2023-04-26T08:52:12.533Z,11.56
2023-04-26T08:57:04.293Z,11.75
2023-04-26T09:01:56.336Z,12.09
2023-04-26T09:06:49.916Z,12.59
2023-04-26T09:11:59.767Z,13.16
2023-04-26T09:16:52.185Z,13.47
2023-04-26T09:21:47.208Z,13.59
2023-04-26T09:26:38.930Z,13.56
2023-04-26T09:31:43.673Z,13.73
2023-04-26T09:36:52.750Z,13.76
2023-04-26T09:41:45.422Z,13.91
2023-04-26T09:46:37.038Z,14.00
2023-04-26T09:51:28.923Z,14.08
2023-04-26T09:56:22.041Z,14.13
2023-04-26T10:01:16.676Z,14.22
2023-04-26T10:06:09.028Z,14.41
2023-04-26T10:11:02.325Z,14.70
2023-04-26T10:15:54.502Z,14.88
2023-04-26T10:20:51.436Z,15.00
2023-04-26T10:25:43.095Z,15.22
2023-04-26T10:30:54.786Z,15.29
2023-04-26T10:36:06.994Z,15.39
2023-04-26T10:41:43.654Z,15.30
2023-04-26T10:46:35.843Z,15.44
2023-04-26T10:51:27.777Z,15.58
2023-04-26T10:56:25.520Z,15.63
2023-04-26T11:01:18.773Z,15.86
2023-04-26T11:06:13.901Z,15.90
2023-04-26T11:11:12.134Z,15.99
2023-04-26T11:16:07.355Z,16.16
2023-04-26T11:20:59.607Z,16.42
2023-04-26T11:25:51.647Z,16.43
2023-04-26T11:30:43.979Z,16.56
2023-04-26T11:35:36.032Z,17.06
2023-04-26T11:40:30.334Z,16.91
2023-04-26T11:45:21.914Z,16.46
2023-04-26T11:50:14.158Z,16.17
2023-04-26T11:55:07.237Z,15.71
2023-04-26T12:00:14.842Z,15.50
2023-04-26T12:05:08.008Z,15.22
2023-04-26T12:10:13.994Z,15.12
2023-04-26T12:15:12.637Z,15.09
2023-04-26T12:20:11.965Z,15.04
2023-04-26T12:25:07.434Z,15.19
2023-04-26T12:29:59.192Z,15.44
2023-04-26T12:34:51.322Z,15.53
2023-04-26T12:39:43.925Z,15.48
2023-04-26T12:44:36.620Z,15.29
2023-04-26T12:49:29.701Z,15.06
2023-04-26T12:54:21.251Z,14.88
2023-04-26T12:59:12.857Z,14.66
2023-04-26T13:04:05.978Z,14.43
2023-04-26T13:08:57.915Z,14.24
2023-04-26T13:13:49.796Z,14.33
2023-04-26T13:18:41.794Z,14.35
2023-04-26T13:23:33.464Z,14.43
2023-04-26T13:28:25.062Z,14.50
2023-04-26T13:33:16.712Z,14.50
2023-04-26T13:38:08.384Z,14.57
2023-04-26T13:42:59.983Z,14.79
2023-04-26T13:47:51.582Z,14.84
2023-04-26T13:52:43.216Z,14.63
2023-04-26T13:57:34.824Z,14.45
2023-04-26T14:02:26.547Z,14.69
2023-04-26T14:07:18.340Z,14.93
2023-04-26T14:12:10.208Z,14.88
2023-04-26T14:17:01.824Z,14.66
2023-04-26T14:21:53.450Z,14.37
2023-04-26T14:26:44.996Z,14.30
2023-04-26T14:31:36.725Z,14.25
2023-04-26T14:36:28.466Z,14.47
2023-04-26T14:41:20.362Z,14.68
2023-04-26T14:46:12.955Z,14.73
2023-04-26T14:51:04.734Z,14.63
2023-04-26T14:56:00.269Z,14.42
2023-04-26T15:00:53.090Z,14.24
2023-04-26T15:05:44.892Z,14.05
2023-04-26T15:10:37.062Z,13.96
2023-04-26T15:15:28.669Z,13.88
2023-04-26T15:20:20.801Z,13.78
2023-04-26T15:25:12.884Z,13.67
2023-04-26T15:30:05.751Z,13.53
2023-04-26T15:34:57.319Z,13.56
2023-04-26T15:39:49.132Z,13.50
2023-04-26T15:44:40.735Z,13.47
2023-04-26T15:49:32.401Z,13.48
2023-04-26T15:54:24.338Z,13.50
2023-04-26T15:59:16.732Z,13.54
2023-04-26T16:04:08.980Z,13.56
2023-04-26T16:09:02.207Z,13.57
2023-04-26T16:13:53.886Z,13.62
2023-04-26T16:18:45.780Z,13.69
2023-04-26T16:23:37.817Z,13.67
2023-04-26T16:28:29.448Z,13.78
2023-04-26T16:33:22.981Z,13.94
2023-04-26T16:38:15.015Z,13.84
2023-04-26T16:43:09.215Z,13.77
2023-04-26T16:48:00.816Z,13.68
2023-04-26T16:52:52.970Z,13.63
2023-04-26T16:57:44.672Z,13.66
2023-04-26T17:02:37.256Z,13.58
2023-04-26T17:07:28.923Z,13.54
2023-04-26T17:12:20.655Z,13.50
2023-04-26T17:17:12.705Z,13.46
2023-04-26T17:22:07.760Z,13.50
2023-04-26T17:26:59.874Z,13.48
2023-04-26T17:31:51.963Z,13.39
2023-04-26T17:36:45.705Z,13.36
2023-04-26T17:41:38.388Z,13.26
2023-04-26T17:46:29.988Z,13.18
2023-04-26T17:51:21.744Z,13.04
2023-04-26T17:56:13.409Z,12.92
2023-04-26T18:01:05.517Z,12.87
2023-04-26T18:05:57.568Z,12.87
2023-04-26T18:10:51.558Z,12.77
2023-04-26T18:15:43.203Z,12.67
2023-04-26T18:20:36.760Z,12.59
2023-04-26T18:25:28.774Z,12.51
2023-04-26T18:30:20.751Z,12.45
2023-04-26T18:35:12.787Z,12.36
2023-04-26T18:40:05.595Z,12.27
2023-04-26T18:44:57.283Z,12.15
2023-04-26T18:49:48.818Z,12.05
2023-04-26T18:54:42.119Z,11.96
2023-04-26T18:59:33.798Z,11.85
2023-04-26T19:04:26.552Z,11.70
2023-04-26T19:09:18.722Z,11.58
2023-04-26T19:14:10.649Z,11.46
2023-04-26T19:19:02.270Z,11.31
2023-04-26T19:23:53.796Z,11.22
2023-04-26T19:28:45.608Z,11.12
2023-04-26T19:33:37.239Z,10.98
2023-04-26T19:38:28.898Z,10.90
2023-04-26T19:43:21.134Z,10.82
2023-04-26T19:48:13.328Z,10.70
2023-04-26T19:53:04.984Z,10.57
2023-04-26T19:57:57.052Z,10.45
2023-04-26T20:02:49.845Z,10.38
2023-04-26T20:07:41.773Z,10.29
2023-04-26T20:12:33.613Z,10.23
2023-04-26T20:17:25.815Z,10.13
2023-04-26T20:22:17.704Z,10.03
2023-04-26T20:27:09.350Z,9.95
2023-04-26T20:32:01.098Z,9.91
2023-04-26T20:36:52.680Z,9.86
2023-04-26T20:41:44.328Z,9.79
2023-04-26T20:46:36.193Z,9.78
2023-04-26T20:51:27.817Z,9.73
2023-04-26T20:56:19.412Z,9.67
2023-04-26T21:01:11.651Z,9.61
2023-04-26T21:06:03.455Z,9.58
2023-04-26T21:10:55.100Z,9.52
2023-04-26T21:15:47.337Z,9.45
2023-04-26T21:20:39.011Z,9.38
2023-04-26T21:25:30.699Z,9.28
2023-04-26T21:30:22.467Z,9.25
2023-04-26T21:35:14.075Z,9.18
2023-04-26T21:40:07.124Z,9.10
2023-04-26T21:44:58.704Z,9.02
2023-04-26T21:49:51.413Z,8.94
2023-04-26T21:54:43.030Z,8.88
2023-04-26T21:59:35.458Z,8.80
2023-04-26T22:04:27.141Z,8.78
2023-04-26T22:09:18.760Z,8.70
2023-04-26T22:14:10.501Z,8.63
2023-04-26T22:19:02.284Z,8.57
2023-04-26T22:23:53.921Z,8.51
2023-04-26T22:28:45.598Z,8.44
2023-04-26T22:33:37.198Z,8.40
2023-04-26T22:38:28.730Z,8.32
2023-04-26T22:43:23.111Z,8.29
2023-04-26T22:48:14.873Z,8.24
2023-04-26T22:53:06.795Z,8.18
2023-04-26T22:57:58.398Z,8.12
2023-04-26T23:02:51.002Z,8.03
2023-04-26T23:07:42.647Z,8.00
2023-04-26T23:12:36.086Z,7.98
2023-04-26T23:17:27.987Z,7.93
2023-04-26T23:22:20.486Z,7.94
2023-04-26T23:27:12.225Z,7.91
2023-04-26T23:32:04.007Z,7.89
2023-04-26T23:36:55.899Z,7.84
2023-04-26T23:41:47.567Z,7.81
2023-04-26T23:46:39.154Z,7.80
2023-04-26T23:51:32.335Z,7.75
2023-04-26T23:56:24.075Z,7.68
